createdAt,value
2023-01-19T00:00:55.450Z,24.42
2023-01-19T00:03:22.367Z,20.30
2023-01-19T00:05:49.397Z,25.98
2023-01-19T00:08:16.732Z,20.08
2023-01-19T00:10:46.944Z,21.30
2023-01-19T00:13:15.218Z,29.85
2023-01-19T00:15:42.211Z,25.88
2023-01-19T00:18:10.631Z,20.70
2023-01-19T00:20:38.499Z,24.30
2023-01-19T00:23:07.610Z,22.75
2023-01-19T00:25:34.896Z,29.17
2023-01-19T00:28:02.082Z,19.77
2023-01-19T00:30:29.173Z,22.95
2023-01-19T00:32:56.342Z,24.33
2023-01-19T00:35:23.300Z,25.38
2023-01-19T00:37:50.478Z,17.85
2023-01-19T00:40:17.879Z,24.42
2023-01-19T00:42:44.796Z,12.70
2023-01-19T00:45:16.597Z,12.10
2023-01-19T00:47:43.510Z,7.85
2023-01-19T00:50:12.640Z,8.95
2023-01-19T00:52:40.487Z,12.40
2023-01-19T00:55:09.451Z,6.05
2023-01-19T00:57:36.810Z,5.68
2023-01-19T01:00:11.840Z,7.10
2023-01-19T01:02:40.510Z,20.20
2023-01-19T01:05:08.780Z,19.77
2023-01-19T01:07:44.683Z,21.13
2023-01-19T01:10:13.155Z,24.92
2023-01-19T01:12:41.286Z,23.42
2023-01-19T01:17:52.992Z,16.45
2023-01-19T01:20:22.349Z,18.45
2023-01-19T01:22:52.433Z,18.95
2023-01-19T01:25:22.667Z,15.13
2023-01-19T01:27:51.293Z,15.73
2023-01-19T01:30:18.622Z,4.82
2023-01-19T01:32:45.557Z,9.70
2023-01-19T01:35:14.262Z,10.57
2023-01-19T01:37:42.715Z,10.32
2023-01-19T01:40:16.712Z,8.35
2023-01-19T01:42:44.100Z,8.90
2023-01-19T01:45:20.071Z,6.55
2023-01-19T01:47:49.980Z,10.27
2023-01-19T01:50:19.813Z,7.70
2023-01-19T01:53:07.275Z,9.65
2023-01-19T01:55:49.741Z,8.57
2023-01-19T01:58:17.242Z,7.03
2023-01-19T02:01:02.831Z,8.77
2023-01-19T02:03:29.961Z,3.88
2023-01-19T02:06:01.662Z,5.13
2023-01-19T02:09:15.553Z,3.88
2023-01-19T02:12:01.885Z,3.60
2023-01-19T02:14:28.811Z,5.07
2023-01-19T02:16:55.848Z,5.57
2023-01-19T02:19:28.428Z,3.47
2023-01-19T02:22:01.186Z,3.45
2023-01-19T02:24:29.298Z,3.15
2023-01-19T02:26:56.643Z,4.03
2023-01-19T02:29:25.987Z,3.35
2023-01-19T02:31:53.976Z,3.20
2023-01-19T02:34:22.755Z,6.93
2023-01-19T02:36:59.320Z,3.63
2023-01-19T02:39:30.952Z,2.92
2023-01-19T02:42:03.485Z,3.22
2023-01-19T02:44:31.768Z,12.07
2023-01-19T02:46:58.627Z,1.17
2023-01-19T02:49:28.570Z,3.28
2023-01-19T02:51:55.968Z,2.55
2023-01-19T02:54:34.953Z,9.52
2023-01-19T02:57:10.743Z,2.75
2023-01-19T02:59:52.775Z,2.13
2023-01-19T03:02:33.252Z,3.42
2023-01-19T03:05:15.138Z,3.67
2023-01-19T03:08:06.335Z,2.25
2023-01-19T03:10:48.339Z,3.15
2023-01-19T03:13:34.772Z,1.08
2023-01-19T03:16:22.608Z,2.72
2023-01-19T03:18:56.676Z,7.05
2023-01-19T03:21:27.069Z,1.30
2023-01-19T03:23:58.784Z,3.08
2023-01-19T03:26:29.829Z,5.68
2023-01-19T03:28:59.838Z,3.38
2023-01-19T03:31:28.903Z,6.18
2023-01-19T03:34:00.464Z,1.98
2023-01-19T03:36:35.879Z,3.97
2023-01-19T03:39:05.257Z,6.97
2023-01-19T03:41:34.311Z,3.40
2023-01-19T03:44:02.672Z,6.90
2023-01-19T03:46:31.465Z,12.10
2023-01-19T03:49:00.011Z,1.02
2023-01-19T03:51:27.393Z,4.43
2023-01-19T03:53:54.273Z,3.20
2023-01-19T03:56:24.467Z,6.05
2023-01-19T03:58:51.863Z,3.38
2023-01-19T04:01:22.902Z,2.67
2023-01-19T04:03:50.907Z,0.60
2023-01-19T04:06:18.629Z,4.85
2023-01-19T04:08:47.181Z,5.57
2023-01-19T04:11:14.136Z,0.88
2023-01-19T04:13:41.091Z,2.80
2023-01-19T04:16:09.872Z,2.25
2023-01-19T04:18:37.095Z,4.75
2023-01-19T04:21:06.276Z,2.47
2023-01-19T04:23:33.833Z,0.38
2023-01-19T04:26:06.231Z,1.60
2023-01-19T04:31:01.123Z,0.75
2023-01-19T04:33:28.549Z,3.33
2023-01-19T04:35:56.161Z,7.80
2023-01-19T04:38:24.294Z,4.10
2023-01-19T04:40:52.829Z,0.85
2023-01-19T04:43:20.590Z,5.00
2023-01-19T04:45:47.835Z,2.38
2023-01-19T04:48:14.808Z,6.13
2023-01-19T04:50:42.034Z,1.35
2023-01-19T04:53:09.587Z,3.50
2023-01-19T04:55:37.828Z,5.00
2023-01-19T04:58:05.307Z,1.40
2023-01-19T05:00:32.143Z,4.57
2023-01-19T05:02:59.786Z,4.30
2023-01-19T05:05:27.392Z,3.38
2023-01-19T05:07:54.913Z,3.20
2023-01-19T05:10:22.153Z,8.00
2023-01-19T05:12:49.518Z,4.82
2023-01-19T05:15:16.452Z,3.47
2023-01-19T05:17:43.369Z,2.47
2023-01-19T05:20:12.523Z,3.45
2023-01-19T05:22:40.491Z,6.30
2023-01-19T05:25:11.140Z,4.05
2023-01-19T05:27:38.669Z,5.97
2023-01-19T05:30:06.661Z,8.18
2023-01-19T05:32:33.506Z,8.30
2023-01-19T05:35:00.587Z,5.70
2023-01-19T05:37:27.488Z,9.65
2023-01-19T05:39:54.785Z,4.47
2023-01-19T05:42:21.835Z,7.10
2023-01-19T05:44:49.157Z,2.65
2023-01-19T05:47:16.460Z,8.38
2023-01-19T05:49:43.360Z,9.65
2023-01-19T05:52:10.321Z,10.65
2023-01-19T05:54:40.294Z,11.40
2023-01-19T05:57:07.731Z,5.22
2023-01-19T05:59:34.596Z,8.15
2023-01-19T06:02:01.579Z,16.10
2023-01-19T06:04:28.487Z,5.20
2023-01-19T06:06:55.428Z,5.47
2023-01-19T06:09:22.319Z,5.13
2023-01-19T06:11:49.257Z,7.82
2023-01-19T06:14:16.639Z,8.95
2023-01-19T06:16:43.712Z,10.43
2023-01-19T06:19:10.886Z,6.78
2023-01-19T06:21:38.324Z,9.52
2023-01-19T06:24:05.810Z,14.05
2023-01-19T06:26:32.702Z,18.30
2023-01-19T06:29:02.705Z,14.95
2023-01-19T06:31:29.599Z,11.45
2023-01-19T06:33:56.508Z,9.13
2023-01-19T06:36:23.511Z,13.57
2023-01-19T06:38:50.402Z,12.73
2023-01-19T06:41:17.275Z,6.10
2023-01-19T06:43:44.158Z,13.05
2023-01-19T06:46:11.198Z,18.67
2023-01-19T06:48:38.048Z,6.38
2023-01-19T06:51:06.489Z,17.60
2023-01-19T06:53:33.384Z,16.08
2023-01-19T06:56:04.569Z,10.73
2023-01-19T06:58:32.098Z,11.45
2023-01-19T07:01:03.894Z,15.82
2023-01-19T07:03:31.757Z,17.05
2023-01-19T07:06:00.905Z,11.05
2023-01-19T07:08:28.660Z,17.88
2023-01-19T07:11:25.949Z,16.42
2023-01-19T07:13:57.039Z,16.75
2023-01-19T07:16:24.343Z,10.15
2023-01-19T07:18:51.442Z,15.88
2023-01-19T07:21:19.247Z,14.55
2023-01-19T07:23:49.261Z,16.67
2023-01-19T07:26:18.603Z,11.10
2023-01-19T07:28:47.445Z,17.25
2023-01-19T07:31:15.852Z,15.63
2023-01-19T07:33:42.889Z,16.13
2023-01-19T07:36:10.111Z,10.73
2023-01-19T07:38:37.101Z,9.52
2023-01-19T07:41:06.236Z,15.80
2023-01-19T07:43:34.354Z,37.83
2023-01-19T07:46:04.439Z,20.30
2023-01-19T07:48:31.577Z,13.40
2023-01-19T07:51:05.607Z,18.88
2023-01-19T07:53:32.975Z,17.15
2023-01-19T07:56:00.110Z,19.58
2023-01-19T07:58:27.350Z,18.52
2023-01-19T08:00:54.799Z,20.33
2023-01-19T08:03:21.856Z,12.75
2023-01-19T08:05:53.086Z,12.90
2023-01-19T08:08:20.429Z,19.00
2023-01-19T08:10:51.386Z,17.33
2023-01-19T08:13:19.096Z,16.50
2023-01-19T08:15:50.459Z,13.93
2023-01-19T08:18:18.092Z,27.17
2023-01-19T08:20:45.004Z,18.08
2023-01-19T08:23:12.590Z,17.52
2023-01-19T08:25:44.374Z,24.95
2023-01-19T08:28:13.807Z,18.08
2023-01-19T08:30:43.589Z,20.50
2023-01-19T08:33:13.927Z,19.08
2023-01-19T08:35:42.791Z,14.02
2023-01-19T08:38:10.475Z,19.80
2023-01-19T08:40:39.742Z,25.05
2023-01-19T08:43:13.273Z,21.35
2023-01-19T08:45:42.485Z,11.00
2023-01-19T08:48:10.337Z,24.88
2023-01-19T08:50:37.214Z,21.73
2023-01-19T08:53:06.905Z,17.45
2023-01-19T08:55:36.473Z,18.63
2023-01-19T08:58:05.191Z,18.17
2023-01-19T09:00:37.958Z,21.95
2023-01-19T09:03:07.243Z,13.57
2023-01-19T09:05:37.292Z,11.35
2023-01-19T09:08:06.425Z,22.17
2023-01-19T09:10:36.112Z,17.48
2023-01-19T09:13:08.413Z,15.43
2023-01-19T09:15:37.638Z,13.15
2023-01-19T09:18:07.192Z,13.55
2023-01-19T09:20:36.250Z,20.08
2023-01-19T09:23:03.444Z,11.32
2023-01-19T09:25:30.755Z,11.52
2023-01-19T09:27:59.998Z,12.10
2023-01-19T09:30:27.784Z,11.23
2023-01-19T09:33:08.026Z,11.05
2023-01-19T09:35:35.374Z,10.05
2023-01-19T09:38:02.575Z,7.18
2023-01-19T09:40:30.738Z,19.88
2023-01-19T09:43:12.152Z,16.13
2023-01-19T09:45:57.504Z,11.32
2023-01-19T09:48:53.163Z,6.57
2023-01-19T09:51:26.382Z,12.80
2023-01-19T09:54:02.564Z,17.92
2023-01-19T09:56:31.563Z,8.48
2023-01-19T09:58:59.323Z,10.85
2023-01-19T10:01:35.479Z,13.45
2023-01-19T10:04:19.663Z,15.75
2023-01-19T10:06:48.619Z,12.40
2023-01-19T10:09:48.999Z,9.73
2023-01-19T10:12:33.403Z,7.88
2023-01-19T10:15:17.230Z,12.65
2023-01-19T10:17:49.927Z,26.83
2023-01-19T10:20:36.728Z,19.05
2023-01-19T10:23:16.371Z,5.78
2023-01-19T10:25:43.494Z,13.50
2023-01-19T10:28:13.579Z,15.68
2023-01-19T10:30:44.114Z,6.30
2023-01-19T10:33:13.618Z,18.95
2023-01-19T10:35:40.512Z,8.10
2023-01-19T10:38:14.029Z,14.55
2023-01-19T10:40:58.742Z,10.27
2023-01-19T10:43:34.779Z,11.55
2023-01-19T10:46:07.132Z,25.02
2023-01-19T10:48:54.228Z,3.90
2023-01-19T10:51:21.730Z,15.13
2023-01-19T10:54:00.880Z,4.78
2023-01-19T10:56:31.943Z,5.25
2023-01-19T10:59:00.406Z,8.68
2023-01-19T11:01:29.917Z,9.73
2023-01-19T11:04:05.466Z,14.32
2023-01-19T11:06:34.324Z,4.72
2023-01-19T11:09:30.705Z,8.35
2023-01-19T11:11:57.612Z,11.30
2023-01-19T11:14:26.340Z,4.20
2023-01-19T11:16:57.891Z,13.80
2023-01-19T11:19:31.091Z,5.38
2023-01-19T11:22:26.961Z,5.97
2023-01-19T11:24:58.650Z,10.07
2023-01-19T11:27:26.469Z,4.72
2023-01-19T11:29:59.498Z,5.45
2023-01-19T11:32:28.062Z,11.00
2023-01-19T11:34:54.992Z,5.10
2023-01-19T11:37:29.607Z,8.10
2023-01-19T11:39:59.002Z,7.70
2023-01-19T11:42:28.268Z,5.28
2023-01-19T11:44:58.267Z,5.70
2023-01-19T11:47:27.179Z,2.70
2023-01-19T11:49:57.135Z,3.28
2023-01-19T11:52:39.584Z,5.65
2023-01-19T11:55:17.607Z,6.15
2023-01-19T11:57:51.525Z,4.90
2023-01-19T12:00:28.638Z,4.25
2023-01-19T12:03:12.546Z,5.22
2023-01-19T12:05:42.965Z,4.13
2023-01-19T12:08:16.881Z,3.17
2023-01-19T12:10:47.174Z,10.00
2023-01-19T12:13:26.199Z,6.05
2023-01-19T12:16:07.370Z,3.85
2023-01-19T12:18:45.255Z,3.40
2023-01-19T12:21:12.312Z,14.98
2023-01-19T12:24:19.107Z,6.82
2023-01-19T12:26:58.788Z,2.55
2023-01-19T12:29:29.279Z,7.13
2023-01-19T12:32:35.525Z,3.20
2023-01-19T12:35:02.964Z,7.25
2023-01-19T12:37:42.932Z,4.00
2023-01-19T12:40:31.339Z,3.22
2023-01-19T12:43:05.260Z,5.53
2023-01-19T12:45:37.959Z,6.28
2023-01-19T12:48:06.870Z,7.30
2023-01-19T12:50:38.253Z,7.82
2023-01-19T12:53:16.884Z,7.57
2023-01-19T12:55:46.828Z,11.48
2023-01-19T12:58:22.629Z,6.63
2023-01-19T13:01:10.311Z,8.07
2023-01-19T13:04:09.137Z,4.15
2023-01-19T13:06:48.254Z,6.07
2023-01-19T13:09:34.029Z,4.88
2023-01-19T13:12:23.615Z,4.32
2023-01-19T13:14:51.012Z,3.38
2023-01-19T13:17:34.206Z,5.10
2023-01-19T13:20:15.349Z,5.88
2023-01-19T13:22:52.084Z,4.65
2023-01-19T13:25:33.595Z,3.28
2023-01-19T13:28:01.287Z,8.00
2023-01-19T13:30:30.099Z,3.88
2023-01-19T13:33:05.266Z,8.85
2023-01-19T13:35:32.611Z,4.80
2023-01-19T13:38:00.445Z,7.25
2023-01-19T13:40:41.177Z,2.17
2023-01-19T13:43:19.593Z,3.33
2023-01-19T13:45:52.424Z,1.13
2023-01-19T13:48:23.226Z,3.05
2023-01-19T13:50:59.487Z,2.83
2023-01-19T13:53:26.465Z,2.53
2023-01-19T13:56:09.487Z,2.00
2023-01-19T13:58:36.670Z,6.43
2023-01-19T14:01:03.616Z,4.03
2023-01-19T14:03:30.568Z,6.47
2023-01-19T14:05:57.631Z,1.85
2023-01-19T14:08:25.785Z,4.47
2023-01-19T14:10:56.487Z,6.07
2023-01-19T14:13:25.807Z,4.43
2023-01-19T14:15:55.935Z,3.55
2023-01-19T14:18:23.484Z,4.85
2023-01-19T14:21:11.943Z,6.82
2023-01-19T14:23:50.911Z,3.42
2023-01-19T14:26:49.871Z,3.80
2023-01-19T14:29:18.739Z,6.90
2023-01-19T14:31:48.233Z,2.97
2023-01-19T14:34:45.017Z,5.28
2023-01-19T14:37:22.207Z,1.52
2023-01-19T14:40:05.650Z,7.28
2023-01-19T14:42:37.205Z,2.28
2023-01-19T14:45:08.567Z,5.45
2023-01-19T14:47:38.616Z,2.72
2023-01-19T14:50:23.662Z,2.65
2023-01-19T14:53:00.674Z,4.75
2023-01-19T14:55:39.342Z,3.65
2023-01-19T14:58:11.738Z,2.25
2023-01-19T15:00:39.691Z,7.00
2023-01-19T15:03:06.784Z,4.22
2023-01-19T15:05:34.009Z,9.00
2023-01-19T15:08:02.959Z,2.63
2023-01-19T15:10:31.057Z,1.50
2023-01-19T15:12:58.075Z,3.00
2023-01-19T15:15:32.028Z,5.10
2023-01-19T15:18:01.067Z,8.95
2023-01-19T15:20:28.316Z,2.05
2023-01-19T15:22:55.211Z,3.20
2023-01-19T15:25:27.455Z,4.68
2023-01-19T15:30:33.763Z,3.97
2023-01-19T15:33:01.955Z,3.10
2023-01-19T15:35:28.795Z,8.85
2023-01-19T15:37:55.846Z,7.65
2023-01-19T15:40:23.285Z,3.90
2023-01-19T15:42:50.713Z,5.47
2023-01-19T15:45:36.394Z,7.85
2023-01-19T15:48:06.004Z,6.47
2023-01-19T15:50:35.644Z,5.10
2023-01-19T15:53:02.545Z,3.88
2023-01-19T15:55:29.578Z,9.35
2023-01-19T15:58:01.660Z,7.90
2023-01-19T16:00:32.913Z,2.50
2023-01-19T16:03:01.231Z,1.75
2023-01-19T16:05:41.987Z,5.50
2023-01-19T16:08:10.031Z,3.42
2023-01-19T16:10:36.912Z,16.92
2023-01-19T16:13:04.158Z,15.05
2023-01-19T16:15:31.009Z,43.13
2023-01-19T16:17:58.416Z,9.93
2023-01-19T16:20:25.303Z,3.25
2023-01-19T16:22:52.870Z,5.90
2023-01-19T16:25:20.863Z,5.55
2023-01-19T16:27:47.708Z,5.15
2023-01-19T16:30:16.365Z,5.20
2023-01-19T16:32:43.415Z,6.65
2023-01-19T16:35:10.386Z,2.38
2023-01-19T16:37:37.438Z,1.30
2023-01-19T16:40:04.765Z,6.25
2023-01-19T16:42:31.828Z,10.30
2023-01-19T16:44:58.784Z,4.28
2023-01-19T16:47:25.683Z,13.63
2023-01-19T16:49:52.623Z,6.53
2023-01-19T16:52:19.637Z,5.75
2023-01-19T16:54:46.704Z,11.10
2023-01-19T16:57:14.560Z,8.95
2023-01-19T16:59:41.480Z,13.95
2023-01-19T17:02:11.040Z,6.28
2023-01-19T17:04:38.053Z,7.93
2023-01-19T17:07:04.923Z,6.80
2023-01-19T17:09:31.737Z,5.30
2023-01-19T17:11:58.629Z,5.97
2023-01-19T17:14:25.548Z,3.70
2023-01-19T17:16:52.524Z,5.72
2023-01-19T17:19:22.201Z,52.75
2023-01-19T17:21:49.954Z,8.18
2023-01-19T17:24:17.486Z,10.45
2023-01-19T17:26:45.998Z,5.97
2023-01-19T17:29:12.958Z,9.13
2023-01-19T17:31:39.863Z,4.60
2023-01-19T17:34:06.915Z,9.85
2023-01-19T17:36:34.095Z,7.40
2023-01-19T17:39:05.067Z,7.45
2023-01-19T17:41:34.997Z,5.60
2023-01-19T17:44:03.352Z,14.70
2023-01-19T17:46:30.881Z,11.77
2023-01-19T17:49:00.055Z,8.73
2023-01-19T17:51:27.574Z,8.60
2023-01-19T17:53:55.199Z,8.02
2023-01-19T17:56:29.424Z,9.50
2023-01-19T17:58:57.512Z,11.27
2023-01-19T18:01:27.445Z,9.90
2023-01-19T18:03:54.724Z,14.73
2023-01-19T18:06:22.423Z,14.52
2023-01-19T18:08:50.359Z,14.13
2023-01-19T18:11:18.630Z,21.45
2023-01-19T18:13:46.779Z,20.25
2023-01-19T18:16:16.367Z,24.17
2023-01-19T18:18:44.281Z,21.27
2023-01-19T18:21:13.563Z,32.38
2023-01-19T18:23:40.835Z,31.73
2023-01-19T18:26:10.182Z,31.50
2023-01-19T18:28:37.220Z,33.22
2023-01-19T18:31:12.370Z,42.65
2023-01-19T18:33:40.249Z,32.33
2023-01-19T18:36:08.125Z,30.70
2023-01-19T18:38:35.774Z,42.60
2023-01-19T18:41:10.057Z,38.78
2023-01-19T18:43:37.148Z,39.50
2023-01-19T18:46:04.500Z,34.97
2023-01-19T18:48:31.833Z,34.17
2023-01-19T18:51:03.282Z,35.53
2023-01-19T18:53:31.914Z,35.55
2023-01-19T18:56:01.938Z,38.78
2023-01-19T18:58:29.285Z,33.28
2023-01-19T19:00:56.666Z,39.10
2023-01-19T19:03:23.877Z,43.95
2023-01-19T19:05:50.788Z,40.72
2023-01-19T19:08:17.990Z,42.45
2023-01-19T19:10:45.299Z,34.30
2023-01-19T19:13:13.093Z,40.45
2023-01-19T19:15:40.109Z,34.83
2023-01-19T19:18:08.953Z,33.97
2023-01-19T19:20:39.499Z,40.78
2023-01-19T19:23:06.370Z,40.72
2023-01-19T19:25:33.521Z,33.60
2023-01-19T19:28:00.496Z,35.92
2023-01-19T19:30:27.457Z,34.95
2023-01-19T19:32:56.127Z,34.08
2023-01-19T19:35:38.021Z,30.75
2023-01-19T19:38:04.879Z,45.17
2023-01-19T19:40:31.766Z,31.05
2023-01-19T19:42:58.966Z,22.90
2023-01-19T19:45:26.234Z,22.42
2023-01-19T19:47:53.109Z,23.35
2023-01-19T19:50:20.051Z,17.75
2023-01-19T19:52:46.986Z,20.17
2023-01-19T19:55:13.922Z,23.80
2023-01-19T19:57:40.868Z,20.35
2023-01-19T20:00:08.447Z,19.35
2023-01-19T20:02:38.087Z,13.75
2023-01-19T20:05:05.555Z,15.35
2023-01-19T20:07:32.905Z,21.33
2023-01-19T20:09:59.906Z,19.15
2023-01-19T20:12:27.383Z,9.93
2023-01-19T20:14:54.354Z,5.03
2023-01-19T20:17:21.328Z,6.65
2023-01-19T20:19:49.052Z,6.32
2023-01-19T20:22:16.065Z,7.15
2023-01-19T20:24:43.021Z,8.15
2023-01-19T20:27:09.881Z,6.85
2023-01-19T20:29:36.726Z,5.72
2023-01-19T20:32:03.952Z,4.40
2023-01-19T20:34:33.472Z,4.55
2023-01-19T20:37:01.805Z,2.40
2023-01-19T20:39:30.278Z,1.17
2023-01-19T20:41:57.200Z,5.00
2023-01-19T20:44:25.790Z,0.93
2023-01-19T20:46:53.890Z,1.40
2023-01-19T20:49:21.021Z,1.02
2023-01-19T20:51:48.432Z,0.93
2023-01-19T20:54:17.597Z,0.90
2023-01-19T20:56:44.655Z,1.17
2023-01-19T20:59:12.559Z,1.63
2023-01-19T21:01:40.317Z,2.17
2023-01-19T21:04:07.943Z,3.47
2023-01-19T21:06:35.389Z,1.23
2023-01-19T21:09:02.430Z,3.03
2023-01-19T21:11:29.467Z,2.13
2023-01-19T21:13:56.596Z,3.00
2023-01-19T21:16:26.293Z,1.70
2023-01-19T21:18:53.785Z,1.80
2023-01-19T21:21:30.470Z,2.13
2023-01-19T21:24:00.172Z,5.72
2023-01-19T21:26:29.736Z,2.97
2023-01-19T21:28:58.256Z,3.08
2023-01-19T21:31:27.571Z,5.93
2023-01-19T21:33:55.584Z,4.05
2023-01-19T21:36:23.599Z,7.88
2023-01-19T21:38:51.456Z,8.13
2023-01-19T21:41:18.825Z,12.25
2023-01-19T21:43:46.245Z,6.15
2023-01-19T21:46:14.678Z,9.10
2023-01-19T21:48:42.387Z,10.32
2023-01-19T21:51:09.918Z,9.27
2023-01-19T21:53:36.909Z,11.88
2023-01-19T21:56:06.982Z,8.77
2023-01-19T21:58:33.972Z,7.53
2023-01-19T22:01:02.763Z,8.13
2023-01-19T22:03:30.033Z,5.53
2023-01-19T22:05:57.327Z,4.80
2023-01-19T22:08:24.564Z,5.35
2023-01-19T22:10:51.474Z,5.43
2023-01-19T22:13:18.359Z,9.02
2023-01-19T22:15:45.277Z,8.52
2023-01-19T22:18:12.171Z,7.90
2023-01-19T22:20:39.148Z,7.72
2023-01-19T22:23:06.004Z,10.55
2023-01-19T22:25:33.447Z,9.60
2023-01-19T22:28:00.415Z,6.72
2023-01-19T22:30:27.431Z,7.97
2023-01-19T22:32:54.490Z,6.85
2023-01-19T22:35:21.391Z,6.07
2023-01-19T22:37:48.275Z,6.90
2023-01-19T22:40:15.369Z,6.93
2023-01-19T22:42:46.613Z,8.88
2023-01-19T22:45:13.940Z,7.68
2023-01-19T22:47:41.343Z,8.15
2023-01-19T22:50:09.001Z,6.57
2023-01-19T22:52:35.850Z,7.20
2023-01-19T22:55:02.804Z,8.35
2023-01-19T22:57:35.735Z,7.30
2023-01-19T23:00:08.614Z,7.55
2023-01-19T23:02:35.559Z,9.27
2023-01-19T23:05:02.427Z,7.60
2023-01-19T23:07:29.354Z,7.93
2023-01-19T23:09:56.194Z,8.85
2023-01-19T23:12:23.127Z,8.10
2023-01-19T23:14:50.052Z,7.57
2023-01-19T23:17:16.901Z,8.63
2023-01-19T23:19:43.849Z,8.52
2023-01-19T23:22:10.856Z,10.27
2023-01-19T23:24:37.785Z,7.80
2023-01-19T23:27:04.706Z,9.35
2023-01-19T23:29:31.627Z,7.00
2023-01-19T23:31:58.556Z,6.93
2023-01-19T23:34:25.485Z,9.35
2023-01-19T23:36:52.269Z,7.40
2023-01-19T23:39:22.173Z,8.10
2023-01-19T23:41:50.034Z,6.38
2023-01-19T23:44:17.391Z,6.63
2023-01-19T23:46:44.707Z,5.97
2023-01-19T23:49:12.753Z,7.55
2023-01-19T23:51:40.659Z,6.28
2023-01-19T23:54:07.955Z,6.47
2023-01-19T23:56:37.246Z,5.60
2023-01-19T23:59:09.617Z,7.10
